sensor_id;sensor_type;location;lat;lon;timestamp;temperature;humidity
18948;DHT22;9607;51.600;7.558;2023-01-13T00:02:07;9.90;99.90
18948;DHT22;9607;51.600;7.558;2023-01-13T00:04:35;9.80;99.90
18948;DHT22;9607;51.600;7.558;2023-01-13T00:07:02;9.70;99.90
18948;DHT22;9607;51.600;7.558;2023-01-13T00:09:29;9.50;99.90
18948;DHT22;9607;51.600;7.558;2023-01-13T00:11:56;9.40;99.90
18948;DHT22;9607;51.600;7.558;2023-01-13T00:14:23;9.30;99.90
18948;DHT22;9607;51.600;7.558;2023-01-13T00:16:54;9.20;99.90
18948;DHT22;9607;51.600;7.558;2023-01-13T00:19:20;9.10;99.90
18948;DHT22;9607;51.600;7.558;2023-01-13T00:21:49;9.10;99.90
18948;DHT22;9607;51.600;7.558;2023-01-13T00:24:16;9.00;99.90
18948;DHT22;9607;51.600;7.558;2023-01-13T00:26:43;9.00;99.90
18948;DHT22;9607;51.600;7.558;2023-01-13T00:29:10;9.00;99.90
18948;DHT22;9607;51.600;7.558;2023-01-13T00:31:37;9.00;99.90
18948;DHT22;9607;51.600;7.558;2023-01-13T00:34:03;9.10;99.90
18948;DHT22;9607;51.600;7.558;2023-01-13T00:36:30;9.10;99.90
18948;DHT22;9607;51.600;7.558;2023-01-13T00:38:59;9.10;99.90
18948;DHT22;9607;51.600;7.558;2023-01-13T00:41:26;9.20;99.90
18948;DHT22;9607;51.600;7.558;2023-01-13T00:43:53;9.30;99.90
18948;DHT22;9607;51.600;7.558;2023-01-13T00:46:20;9.30;99.90
18948;DHT22;9607;51.600;7.558;2023-01-13T00:48:50;9.30;99.90
18948;DHT22;9607;51.600;7.558;2023-01-13T00:51:19;9.40;99.90
18948;DHT22;9607;51.600;7.558;2023-01-13T00:53:48;9.40;99.90
18948;DHT22;9607;51.600;7.558;2023-01-13T00:56:19;9.40;99.90
18948;DHT22;9607;51.600;7.558;2023-01-13T00:58:46;9.50;99.90
18948;DHT22;9607;51.600;7.558;2023-01-13T01:01:16;9.50;99.90
18948;DHT22;9607;51.600;7.558;2023-01-13T01:03:43;9.50;99.90
18948;DHT22;9607;51.600;7.558;2023-01-13T01:06:12;9.60;99.90
18948;DHT22;9607;51.600;7.558;2023-01-13T01:08:39;9.60;99.90
18948;DHT22;9607;51.600;7.558;2023-01-13T01:11:08;9.60;99.90
18948;DHT22;9607;51.600;7.558;2023-01-13T01:13:37;9.60;99.90
18948;DHT22;9607;51.600;7.558;2023-01-13T01:16:07;9.60;99.90
18948;DHT22;9607;51.600;7.558;2023-01-13T01:18:36;9.60;99.90
18948;DHT22;9607;51.600;7.558;2023-01-13T01:21:04;9.60;99.90
18948;DHT22;9607;51.600;7.558;2023-01-13T01:23:31;9.60;99.90
18948;DHT22;9607;51.600;7.558;2023-01-13T01:25:59;9.60;99.90
18948;DHT22;9607;51.600;7.558;2023-01-13T01:28:27;9.60;99.90
18948;DHT22;9607;51.600;7.558;2023-01-13T01:30:55;9.60;99.90
18948;DHT22;9607;51.600;7.558;2023-01-13T01:33:22;9.60;99.90
18948;DHT22;9607;51.600;7.558;2023-01-13T01:35:49;9.50;99.90
18948;DHT22;9607;51.600;7.558;2023-01-13T01:38:16;9.50;99.90
18948;DHT22;9607;51.600;7.558;2023-01-13T01:40:43;9.50;99.90
18948;DHT22;9607;51.600;7.558;2023-01-13T01:43:14;9.50;99.90
18948;DHT22;9607;51.600;7.558;2023-01-13T01:46:00;9.60;99.90
18948;DHT22;9607;51.600;7.558;2023-01-13T01:48:30;9.60;99.90
18948;DHT22;9607;51.600;7.558;2023-01-13T01:50:59;9.60;99.90
18948;DHT22;9607;51.600;7.558;2023-01-13T01:53:26;9.50;99.90
18948;DHT22;9607;51.600;7.558;2023-01-13T01:55:55;9.50;99.90
18948;DHT22;9607;51.600;7.558;2023-01-13T01:58:27;9.50;99.90
18948;DHT22;9607;51.600;7.558;2023-01-13T02:00:54;9.50;99.90
18948;DHT22;9607;51.600;7.558;2023-01-13T02:03:22;9.50;99.90
18948;DHT22;9607;51.600;7.558;2023-01-13T02:05:50;9.50;99.90
18948;DHT22;9607;51.600;7.558;2023-01-13T02:08:17;9.50;99.90
18948;DHT22;9607;51.600;7.558;2023-01-13T02:10:47;9.50;99.90
18948;DHT22;9607;51.600;7.558;2023-01-13T02:13:16;9.50;99.90
18948;DHT22;9607;51.600;7.558;2023-01-13T02:15:48;9.50;99.90
18948;DHT22;9607;51.600;7.558;2023-01-13T02:18:32;9.50;99.90
18948;DHT22;9607;51.600;7.558;2023-01-13T02:21:16;9.50;99.90
18948;DHT22;9607;51.600;7.558;2023-01-13T02:24:12;9.50;99.90
18948;DHT22;9607;51.600;7.558;2023-01-13T02:27:30;9.40;99.90
18948;DHT22;9607;51.600;7.558;2023-01-13T02:30:13;9.30;99.90
18948;DHT22;9607;51.600;7.558;2023-01-13T02:33:06;9.30;99.90
18948;DHT22;9607;51.600;7.558;2023-01-13T02:35:41;9.30;99.90
18948;DHT22;9607;51.600;7.558;2023-01-13T02:38:12;9.20;99.90
18948;DHT22;9607;51.600;7.558;2023-01-13T02:40:45;9.20;99.90
18948;DHT22;9607;51.600;7.558;2023-01-13T02:43:17;9.20;99.90
18948;DHT22;9607;51.600;7.558;2023-01-13T02:46:08;9.10;99.90
18948;DHT22;9607;51.600;7.558;2023-01-13T02:48:37;9.10;99.90
18948;DHT22;9607;51.600;7.558;2023-01-13T02:51:09;9.10;99.90
18948;DHT22;9607;51.600;7.558;2023-01-13T02:53:42;9.10;99.90
18948;DHT22;9607;51.600;7.558;2023-01-13T02:56:12;9.10;99.90
18948;DHT22;9607;51.600;7.558;2023-01-13T02:58:42;9.10;99.90
18948;DHT22;9607;51.600;7.558;2023-01-13T03:01:10;9.10;99.90
18948;DHT22;9607;51.600;7.558;2023-01-13T03:03:37;9.10;99.90
18948;DHT22;9607;51.600;7.558;2023-01-13T03:06:16;9.10;99.90
18948;DHT22;9607;51.600;7.558;2023-01-13T03:08:49;9.10;99.90
18948;DHT22;9607;51.600;7.558;2023-01-13T03:11:19;9.10;99.90
18948;DHT22;9607;51.600;7.558;2023-01-13T03:14:13;9.00;99.90
18948;DHT22;9607;51.600;7.558;2023-01-13T03:16:55;9.00;99.90
18948;DHT22;9607;51.600;7.558;2023-01-13T03:19:33;8.90;99.90
18948;DHT22;9607;51.600;7.558;2023-01-13T03:22:10;8.90;99.90
18948;DHT22;9607;51.600;7.558;2023-01-13T03:24:43;8.80;99.90
18948;DHT22;9607;51.600;7.558;2023-01-13T03:27:18;8.80;99.90
18948;DHT22;9607;51.600;7.558;2023-01-13T03:29:49;8.80;99.90
18948;DHT22;9607;51.600;7.558;2023-01-13T03:32:23;8.70;99.90
18948;DHT22;9607;51.600;7.558;2023-01-13T03:34:54;8.70;99.90
18948;DHT22;9607;51.600;7.558;2023-01-13T03:37:24;8.60;99.90
18948;DHT22;9607;51.600;7.558;2023-01-13T03:39:57;8.60;99.90
18948;DHT22;9607;51.600;7.558;2023-01-13T03:42:28;8.50;99.90
18948;DHT22;9607;51.600;7.558;2023-01-13T03:44:59;8.50;99.90
18948;DHT22;9607;51.600;7.558;2023-01-13T03:47:31;8.40;99.90
18948;DHT22;9607;51.600;7.558;2023-01-13T03:50:02;8.40;99.90
18948;DHT22;9607;51.600;7.558;2023-01-13T03:52:33;8.30;99.90
18948;DHT22;9607;51.600;7.558;2023-01-13T03:55:04;8.30;99.90
18948;DHT22;9607;51.600;7.558;2023-01-13T03:57:35;8.30;99.90
18948;DHT22;9607;51.600;7.558;2023-01-13T04:00:06;8.20;99.90
18948;DHT22;9607;51.600;7.558;2023-01-13T04:02:43;8.10;99.90
18948;DHT22;9607;51.600;7.558;2023-01-13T04:05:12;8.00;99.90
18948;DHT22;9607;51.600;7.558;2023-01-13T04:07:54;8.00;99.90
18948;DHT22;9607;51.600;7.558;2023-01-13T04:10:27;7.90;99.90
18948;DHT22;9607;51.600;7.558;2023-01-13T04:12:58;7.90;99.90
18948;DHT22;9607;51.600;7.558;2023-01-13T04:15:28;7.90;99.90
18948;DHT22;9607;51.600;7.558;2023-01-13T04:18:12;7.80;99.90
18948;DHT22;9607;51.600;7.558;2023-01-13T04:20:40;7.80;99.90
18948;DHT22;9607;51.600;7.558;2023-01-13T04:23:08;7.80;99.90
18948;DHT22;9607;51.600;7.558;2023-01-13T04:25:36;7.70;99.90
18948;DHT22;9607;51.600;7.558;2023-01-13T04:28:03;7.70;99.90
18948;DHT22;9607;51.600;7.558;2023-01-13T04:30:30;7.60;99.90
18948;DHT22;9607;51.600;7.558;2023-01-13T04:32:57;7.60;99.90
18948;DHT22;9607;51.600;7.558;2023-01-13T04:35:26;7.50;99.90
18948;DHT22;9607;51.600;7.558;2023-01-13T04:37:53;7.50;99.90
18948;DHT22;9607;51.600;7.558;2023-01-13T04:40:20;7.50;99.90
18948;DHT22;9607;51.600;7.558;2023-01-13T04:42:47;7.40;99.90
18948;DHT22;9607;51.600;7.558;2023-01-13T04:45:14;7.40;99.90
18948;DHT22;9607;51.600;7.558;2023-01-13T04:47:40;7.40;99.90
18948;DHT22;9607;51.600;7.558;2023-01-13T04:50:09;7.40;99.90
18948;DHT22;9607;51.600;7.558;2023-01-13T04:52:37;7.40;99.90
18948;DHT22;9607;51.600;7.558;2023-01-13T04:55:05;7.50;99.90
18948;DHT22;9607;51.600;7.558;2023-01-13T04:57:32;7.50;99.90
18948;DHT22;9607;51.600;7.558;2023-01-13T04:59:59;7.50;99.90
18948;DHT22;9607;51.600;7.558;2023-01-13T05:02:26;7.60;99.90
18948;DHT22;9607;51.600;7.558;2023-01-13T05:04:53;7.60;99.90
18948;DHT22;9607;51.600;7.558;2023-01-13T05:07:20;7.60;99.90
18948;DHT22;9607;51.600;7.558;2023-01-13T05:09:48;7.60;99.90
18948;DHT22;9607;51.600;7.558;2023-01-13T05:12:15;7.70;99.90
18948;DHT22;9607;51.600;7.558;2023-01-13T05:14:59;7.70;99.90
18948;DHT22;9607;51.600;7.558;2023-01-13T05:17:43;7.80;99.90
18948;DHT22;9607;51.600;7.558;2023-01-13T05:20:11;7.90;99.90
18948;DHT22;9607;51.600;7.558;2023-01-13T05:22:38;7.90;99.90
18948;DHT22;9607;51.600;7.558;2023-01-13T05:25:20;8.00;99.90
18948;DHT22;9607;51.600;7.558;2023-01-13T05:27:47;8.00;99.90
18948;DHT22;9607;51.600;7.558;2023-01-13T05:30:15;8.10;99.90
18948;DHT22;9607;51.600;7.558;2023-01-13T05:32:42;8.10;99.90
18948;DHT22;9607;51.600;7.558;2023-01-13T05:35:09;8.10;99.90
18948;DHT22;9607;51.600;7.558;2023-01-13T05:37:36;8.10;99.90
18948;DHT22;9607;51.600;7.558;2023-01-13T05:40:05;8.10;99.90
18948;DHT22;9607;51.600;7.558;2023-01-13T05:43:01;8.00;99.90
18948;DHT22;9607;51.600;7.558;2023-01-13T05:45:47;8.00;99.90
18948;DHT22;9607;51.600;7.558;2023-01-13T05:48:16;8.00;99.90
18948;DHT22;9607;51.600;7.558;2023-01-13T05:50:44;8.00;99.90
18948;DHT22;9607;51.600;7.558;2023-01-13T05:53:10;7.90;99.90
18948;DHT22;9607;51.600;7.558;2023-01-13T05:55:38;7.90;99.90
18948;DHT22;9607;51.600;7.558;2023-01-13T05:58:07;7.90;99.90
18948;DHT22;9607;51.600;7.558;2023-01-13T06:00:35;7.90;99.90
18948;DHT22;9607;51.600;7.558;2023-01-13T06:03:02;7.90;99.90
18948;DHT22;9607;51.600;7.558;2023-01-13T06:05:29;7.80;99.90
18948;DHT22;9607;51.600;7.558;2023-01-13T06:07:57;7.80;99.90
18948;DHT22;9607;51.600;7.558;2023-01-13T06:10:28;7.70;99.90
18948;DHT22;9607;51.600;7.558;2023-01-13T06:12:55;7.70;99.90
18948;DHT22;9607;51.600;7.558;2023-01-13T06:15:24;7.70;99.90
18948;DHT22;9607;51.600;7.558;2023-01-13T06:17:51;7.80;99.90
18948;DHT22;9607;51.600;7.558;2023-01-13T06:20:19;7.80;99.90
18948;DHT22;9607;51.600;7.558;2023-01-13T06:22:49;7.80;99.90
18948;DHT22;9607;51.600;7.558;2023-01-13T06:25:22;7.90;99.90
18948;DHT22;9607;51.600;7.558;2023-01-13T06:27:50;7.90;99.90
18948;DHT22;9607;51.600;7.558;2023-01-13T06:30:17;7.90;99.90
18948;DHT22;9607;51.600;7.558;2023-01-13T06:32:48;7.80;99.90
18948;DHT22;9607;51.600;7.558;2023-01-13T06:35:20;7.80;99.90
18948;DHT22;9607;51.600;7.558;2023-01-13T06:37:50;7.80;99.90
18948;DHT22;9607;51.600;7.558;2023-01-13T06:40:18;7.80;99.90
18948;DHT22;9607;51.600;7.558;2023-01-13T06:42:45;7.80;99.90
18948;DHT22;9607;51.600;7.558;2023-01-13T06:45:29;7.90;99.90
18948;DHT22;9607;51.600;7.558;2023-01-13T06:47:58;7.90;99.90
18948;DHT22;9607;51.600;7.558;2023-01-13T06:50:26;8.00;99.90
18948;DHT22;9607;51.600;7.558;2023-01-13T06:52:53;8.00;99.90
18948;DHT22;9607;51.600;7.558;2023-01-13T06:55:20;8.00;99.90
18948;DHT22;9607;51.600;7.558;2023-01-13T06:57:48;8.10;99.90
18948;DHT22;9607;51.600;7.558;2023-01-13T07:00:15;8.10;99.90
18948;DHT22;9607;51.600;7.558;2023-01-13T07:02:42;8.10;99.90
18948;DHT22;9607;51.600;7.558;2023-01-13T07:05:11;8.00;99.90
18948;DHT22;9607;51.600;7.558;2023-01-13T07:07:38;8.00;99.90
18948;DHT22;9607;51.600;7.558;2023-01-13T07:10:06;8.00;99.90
18948;DHT22;9607;51.600;7.558;2023-01-13T07:12:34;8.10;99.90
18948;DHT22;9607;51.600;7.558;2023-01-13T07:15:23;8.10;99.90
18948;DHT22;9607;51.600;7.558;2023-01-13T07:17:49;8.10;99.90
18948;DHT22;9607;51.600;7.558;2023-01-13T07:20:17;8.10;99.90
18948;DHT22;9607;51.600;7.558;2023-01-13T07:22:45;8.10;99.90
18948;DHT22;9607;51.600;7.558;2023-01-13T07:25:11;8.10;99.90
18948;DHT22;9607;51.600;7.558;2023-01-13T07:27:38;8.10;99.90
18948;DHT22;9607;51.600;7.558;2023-01-13T07:30:06;8.00;99.90
18948;DHT22;9607;51.600;7.558;2023-01-13T07:32:33;8.00;99.90
18948;DHT22;9607;51.600;7.558;2023-01-13T07:35:00;7.90;99.90
18948;DHT22;9607;51.600;7.558;2023-01-13T07:37:32;7.90;99.90
18948;DHT22;9607;51.600;7.558;2023-01-13T07:39:59;7.90;99.90
18948;DHT22;9607;51.600;7.558;2023-01-13T07:42:26;7.90;99.90
18948;DHT22;9607;51.600;7.558;2023-01-13T07:45:10;7.80;99.90
18948;DHT22;9607;51.600;7.558;2023-01-13T07:47:37;7.80;99.90
18948;DHT22;9607;51.600;7.558;2023-01-13T07:50:05;7.70;99.90
18948;DHT22;9607;51.600;7.558;2023-01-13T07:52:34;7.80;99.90
18948;DHT22;9607;51.600;7.558;2023-01-13T07:55:02;7.80;99.90
18948;DHT22;9607;51.600;7.558;2023-01-13T07:57:29;7.70;99.90
18948;DHT22;9607;51.600;7.558;2023-01-13T07:59:56;7.70;99.90
18948;DHT22;9607;51.600;7.558;2023-01-13T08:02:23;7.70;99.90
18948;DHT22;9607;51.600;7.558;2023-01-13T08:04:50;7.70;99.90
18948;DHT22;9607;51.600;7.558;2023-01-13T08:07:17;7.70;99.90
18948;DHT22;9607;51.600;7.558;2023-01-13T08:09:45;7.70;99.90
18948;DHT22;9607;51.600;7.558;2023-01-13T08:12:12;7.80;99.90
18948;DHT22;9607;51.600;7.558;2023-01-13T08:14:57;7.80;99.90
18948;DHT22;9607;51.600;7.558;2023-01-13T08:17:24;7.80;99.90
18948;DHT22;9607;51.600;7.558;2023-01-13T08:19:51;7.80;99.90
18948;DHT22;9607;51.600;7.558;2023-01-13T08:22:17;7.90;99.90
18948;DHT22;9607;51.600;7.558;2023-01-13T08:24:46;8.00;99.90
18948;DHT22;9607;51.600;7.558;2023-01-13T08:27:12;8.10;99.90
18948;DHT22;9607;51.600;7.558;2023-01-13T08:29:39;8.10;99.90
18948;DHT22;9607;51.600;7.558;2023-01-13T08:32:06;8.20;99.90
18948;DHT22;9607;51.600;7.558;2023-01-13T08:34:35;8.20;99.90
18948;DHT22;9607;51.600;7.558;2023-01-13T08:37:02;8.30;99.90
18948;DHT22;9607;51.600;7.558;2023-01-13T08:39:29;8.40;99.90
18948;DHT22;9607;51.600;7.558;2023-01-13T08:41:57;8.30;99.90
18948;DHT22;9607;51.600;7.558;2023-01-13T08:44:25;8.40;99.90
18948;DHT22;9607;51.600;7.558;2023-01-13T08:46:53;8.40;99.90
18948;DHT22;9607;51.600;7.558;2023-01-13T08:49:21;8.50;99.90
18948;DHT22;9607;51.600;7.558;2023-01-13T08:51:49;8.50;99.90
18948;DHT22;9607;51.600;7.558;2023-01-13T08:54:16;8.50;99.90
18948;DHT22;9607;51.600;7.558;2023-01-13T08:56:44;8.50;99.90
18948;DHT22;9607;51.600;7.558;2023-01-13T08:59:13;8.60;99.90
18948;DHT22;9607;51.600;7.558;2023-01-13T09:01:41;8.50;99.90
18948;DHT22;9607;51.600;7.558;2023-01-13T09:04:14;8.60;99.90
18948;DHT22;9607;51.600;7.558;2023-01-13T09:06:43;8.60;99.90
18948;DHT22;9607;51.600;7.558;2023-01-13T09:09:10;8.60;99.90
18948;DHT22;9607;51.600;7.558;2023-01-13T09:11:41;8.60;99.90
18948;DHT22;9607;51.600;7.558;2023-01-13T09:14:31;8.70;99.90
18948;DHT22;9607;51.600;7.558;2023-01-13T09:17:01;8.60;99.90
18948;DHT22;9607;51.600;7.558;2023-01-13T09:19:28;8.60;99.90
18948;DHT22;9607;51.600;7.558;2023-01-13T09:21:56;8.70;99.90
18948;DHT22;9607;51.600;7.558;2023-01-13T09:24:23;8.60;99.90
18948;DHT22;9607;51.600;7.558;2023-01-13T09:26:50;8.70;99.90
18948;DHT22;9607;51.600;7.558;2023-01-13T09:29:17;8.70;99.90
18948;DHT22;9607;51.600;7.558;2023-01-13T09:31:46;8.80;99.90
18948;DHT22;9607;51.600;7.558;2023-01-13T09:34:15;8.80;99.90
18948;DHT22;9607;51.600;7.558;2023-01-13T09:37:14;8.80;99.90
18948;DHT22;9607;51.600;7.558;2023-01-13T09:39:41;8.90;99.90
18948;DHT22;9607;51.600;7.558;2023-01-13T09:42:14;8.90;99.90
18948;DHT22;9607;51.600;7.558;2023-01-13T09:45:03;8.90;99.90
18948;DHT22;9607;51.600;7.558;2023-01-13T09:47:37;8.90;99.90
18948;DHT22;9607;51.600;7.558;2023-01-13T09:50:17;9.00;99.90
18948;DHT22;9607;51.600;7.558;2023-01-13T09:52:45;9.00;99.90
18948;DHT22;9607;51.600;7.558;2023-01-13T09:55:15;9.00;99.90
18948;DHT22;9607;51.600;7.558;2023-01-13T09:57:42;9.00;99.90
18948;DHT22;9607;51.600;7.558;2023-01-13T10:00:11;9.00;99.90
18948;DHT22;9607;51.600;7.558;2023-01-13T10:02:55;9.00;99.90
18948;DHT22;9607;51.600;7.558;2023-01-13T10:05:30;9.00;99.90
18948;DHT22;9607;51.600;7.558;2023-01-13T10:08:04;9.10;99.90
18948;DHT22;9607;51.600;7.558;2023-01-13T10:10:38;9.10;99.90
18948;DHT22;9607;51.600;7.558;2023-01-13T10:13:14;9.10;99.90
18948;DHT22;9607;51.600;7.558;2023-01-13T10:15:47;9.10;99.90
18948;DHT22;9607;51.600;7.558;2023-01-13T10:18:23;9.20;99.90
18948;DHT22;9607;51.600;7.558;2023-01-13T10:21:00;9.30;99.90
18948;DHT22;9607;51.600;7.558;2023-01-13T10:23:50;9.30;99.90
18948;DHT22;9607;51.600;7.558;2023-01-13T10:26:30;9.30;99.90
18948;DHT22;9607;51.600;7.558;2023-01-13T10:29:02;9.40;99.90
18948;DHT22;9607;51.600;7.558;2023-01-13T10:31:29;9.40;99.90
18948;DHT22;9607;51.600;7.558;2023-01-13T10:34:02;9.40;99.90
18948;DHT22;9607;51.600;7.558;2023-01-13T10:36:29;9.40;99.90
18948;DHT22;9607;51.600;7.558;2023-01-13T10:39:07;9.40;99.90
18948;DHT22;9607;51.600;7.558;2023-01-13T10:41:34;9.50;99.90
18948;DHT22;9607;51.600;7.558;2023-01-13T10:44:04;9.50;99.90
18948;DHT22;9607;51.600;7.558;2023-01-13T10:46:32;9.50;99.90
18948;DHT22;9607;51.600;7.558;2023-01-13T10:49:03;9.60;99.90
18948;DHT22;9607;51.600;7.558;2023-01-13T10:51:44;9.60;99.90
18948;DHT22;9607;51.600;7.558;2023-01-13T10:54:18;9.70;99.90
18948;DHT22;9607;51.600;7.558;2023-01-13T10:56:47;9.80;99.90
18948;DHT22;9607;51.600;7.558;2023-01-13T10:59:16;9.80;99.90
18948;DHT22;9607;51.600;7.558;2023-01-13T11:01:57;9.80;99.90
18948;DHT22;9607;51.600;7.558;2023-01-13T11:04:31;9.90;99.90
18948;DHT22;9607;51.600;7.558;2023-01-13T11:07:02;9.90;99.90
18948;DHT22;9607;51.600;7.558;2023-01-13T11:09:30;9.90;99.90
18948;DHT22;9607;51.600;7.558;2023-01-13T11:11:58;10.00;99.90
18948;DHT22;9607;51.600;7.558;2023-01-13T11:14:35;10.10;99.90
18948;DHT22;9607;51.600;7.558;2023-01-13T11:17:26;10.20;99.90
18948;DHT22;9607;51.600;7.558;2023-01-13T11:19:59;10.20;99.90
18948;DHT22;9607;51.600;7.558;2023-01-13T11:22:32;10.20;99.90
18948;DHT22;9607;51.600;7.558;2023-01-13T11:25:02;10.30;99.90
18948;DHT22;9607;51.600;7.558;2023-01-13T11:27:38;10.30;99.90
18948;DHT22;9607;51.600;7.558;2023-01-13T11:30:12;10.20;99.90
18948;DHT22;9607;51.600;7.558;2023-01-13T11:32:58;10.20;99.90
18948;DHT22;9607;51.600;7.558;2023-01-13T11:35:28;10.10;99.90
18948;DHT22;9607;51.600;7.558;2023-01-13T11:38:01;10.10;99.90
18948;DHT22;9607;51.600;7.558;2023-01-13T11:40:33;10.10;99.90
18948;DHT22;9607;51.600;7.558;2023-01-13T11:43:09;10.10;99.90
18948;DHT22;9607;51.600;7.558;2023-01-13T11:45:41;10.00;99.90
18948;DHT22;9607;51.600;7.558;2023-01-13T11:48:13;10.00;99.90
18948;DHT22;9607;51.600;7.558;2023-01-13T11:50:46;10.00;99.90
18948;DHT22;9607;51.600;7.558;2023-01-13T11:53:30;10.10;99.90
18948;DHT22;9607;51.600;7.558;2023-01-13T11:56:08;10.10;99.90
18948;DHT22;9607;51.600;7.558;2023-01-13T11:58:54;10.20;99.90
18948;DHT22;9607;51.600;7.558;2023-01-13T12:01:46;10.40;99.90
18948;DHT22;9607;51.600;7.558;2023-01-13T12:04:23;10.40;99.90
18948;DHT22;9607;51.600;7.558;2023-01-13T12:06:58;10.50;99.90
18948;DHT22;9607;51.600;7.558;2023-01-13T12:09:44;10.40;99.90
18948;DHT22;9607;51.600;7.558;2023-01-13T12:12:22;10.30;99.90
18948;DHT22;9607;51.600;7.558;2023-01-13T12:15:33;10.20;99.90
18948;DHT22;9607;51.600;7.558;2023-01-13T12:18:14;10.20;99.90
18948;DHT22;9607;51.600;7.558;2023-01-13T12:20:49;10.10;99.90
18948;DHT22;9607;51.600;7.558;2023-01-13T12:23:29;10.00;99.90
18948;DHT22;9607;51.600;7.558;2023-01-13T12:26:00;10.00;99.90
18948;DHT22;9607;51.600;7.558;2023-01-13T12:28:40;10.00;99.90
18948;DHT22;9607;51.600;7.558;2023-01-13T12:31:09;10.00;99.90
18948;DHT22;9607;51.600;7.558;2023-01-13T12:33:43;10.00;99.90
18948;DHT22;9607;51.600;7.558;2023-01-13T12:36:16;9.90;99.90
18948;DHT22;9607;51.600;7.558;2023-01-13T12:38:51;9.80;99.90
18948;DHT22;9607;51.600;7.558;2023-01-13T12:41:29;9.70;99.90
18948;DHT22;9607;51.600;7.558;2023-01-13T12:43:59;9.50;99.90
18948;DHT22;9607;51.600;7.558;2023-01-13T12:46:49;9.30;99.90
18948;DHT22;9607;51.600;7.558;2023-01-13T12:49:23;8.90;99.90
18948;DHT22;9607;51.600;7.558;2023-01-13T12:52:08;8.50;99.90
18948;DHT22;9607;51.600;7.558;2023-01-13T12:55:06;8.20;99.90
18948;DHT22;9607;51.600;7.558;2023-01-13T12:57:35;7.90;99.90
18948;DHT22;9607;51.600;7.558;2023-01-13T13:00:17;7.70;99.90
18948;DHT22;9607;51.600;7.558;2023-01-13T13:03:20;7.70;99.90
18948;DHT22;9607;51.600;7.558;2023-01-13T13:05:59;7.80;99.90
18948;DHT22;9607;51.600;7.558;2023-01-13T13:08:45;7.90;99.90
18948;DHT22;9607;51.600;7.558;2023-01-13T13:17:42;8.30;99.90
18948;DHT22;9607;51.600;7.558;2023-01-13T13:23:44;8.70;99.90
18948;DHT22;9607;51.600;7.558;2023-01-13T13:26:36;8.90;99.90
18948;DHT22;9607;51.600;7.558;2023-01-13T13:29:38;8.90;99.90
18948;DHT22;9607;51.600;7.558;2023-01-13T13:32:32;8.90;99.90
18948;DHT22;9607;51.600;7.558;2023-01-13T13:35:12;9.00;99.90
18948;DHT22;9607;51.600;7.558;2023-01-13T13:37:54;9.00;99.90
18948;DHT22;9607;51.600;7.558;2023-01-13T13:40:44;9.10;99.90
18948;DHT22;9607;51.600;7.558;2023-01-13T13:43:38;9.10;99.90
18948;DHT22;9607;51.600;7.558;2023-01-13T13:46:24;9.10;99.90
18948;DHT22;9607;51.600;7.558;2023-01-13T13:49:09;9.10;99.90
18948;DHT22;9607;51.600;7.558;2023-01-13T13:51:39;9.10;99.90
18948;DHT22;9607;51.600;7.558;2023-01-13T13:54:12;9.00;99.90
18948;DHT22;9607;51.600;7.558;2023-01-13T13:56:42;9.00;99.90
18948;DHT22;9607;51.600;7.558;2023-01-13T13:59:12;9.00;99.90
18948;DHT22;9607;51.600;7.558;2023-01-13T14:01:43;9.00;99.90
18948;DHT22;9607;51.600;7.558;2023-01-13T14:04:14;8.90;99.90
18948;DHT22;9607;51.600;7.558;2023-01-13T14:06:54;8.90;99.90
18948;DHT22;9607;51.600;7.558;2023-01-13T14:09:23;8.80;99.90
18948;DHT22;9607;51.600;7.558;2023-01-13T14:11:55;8.80;99.90
18948;DHT22;9607;51.600;7.558;2023-01-13T14:14:24;8.80;99.90
18948;DHT22;9607;51.600;7.558;2023-01-13T14:16:51;8.70;99.90
18948;DHT22;9607;51.600;7.558;2023-01-13T14:19:27;8.70;99.90
18948;DHT22;9607;51.600;7.558;2023-01-13T14:21:55;8.70;99.90
18948;DHT22;9607;51.600;7.558;2023-01-13T14:24:22;8.70;99.90
18948;DHT22;9607;51.600;7.558;2023-01-13T14:26:49;8.80;99.90
18948;DHT22;9607;51.600;7.558;2023-01-13T14:29:19;8.70;99.90
18948;DHT22;9607;51.600;7.558;2023-01-13T14:31:48;8.70;99.90
18948;DHT22;9607;51.600;7.558;2023-01-13T14:34:16;8.50;99.90
18948;DHT22;9607;51.600;7.558;2023-01-13T14:36:44;8.30;99.90
18948;DHT22;9607;51.600;7.558;2023-01-13T14:39:32;8.10;99.90
18948;DHT22;9607;51.600;7.558;2023-01-13T14:42:00;7.90;99.90
18948;DHT22;9607;51.600;7.558;2023-01-13T14:44:30;7.70;99.90
18948;DHT22;9607;51.600;7.558;2023-01-13T14:47:03;7.60;99.90
18948;DHT22;9607;51.600;7.558;2023-01-13T14:49:34;7.50;99.90
18948;DHT22;9607;51.600;7.558;2023-01-13T14:52:09;7.40;99.90
18948;DHT22;9607;51.600;7.558;2023-01-13T14:54:48;7.40;99.90
18948;DHT22;9607;51.600;7.558;2023-01-13T14:57:23;7.30;99.90
18948;DHT22;9607;51.600;7.558;2023-01-13T14:59:56;7.30;99.90
18948;DHT22;9607;51.600;7.558;2023-01-13T15:02:47;7.20;99.90
18948;DHT22;9607;51.600;7.558;2023-01-13T15:05:44;7.10;99.90
18948;DHT22;9607;51.600;7.558;2023-01-13T15:11:23;7.10;99.90
18948;DHT22;9607;51.600;7.558;2023-01-13T15:13:56;7.10;99.90
18948;DHT22;9607;51.600;7.558;2023-01-13T15:16:26;7.10;99.90
18948;DHT22;9607;51.600;7.558;2023-01-13T15:18:55;7.10;99.90
18948;DHT22;9607;51.600;7.558;2023-01-13T15:21:23;7.10;99.90
18948;DHT22;9607;51.600;7.558;2023-01-13T15:23:50;7.10;99.90
18948;DHT22;9607;51.600;7.558;2023-01-13T15:26:23;7.10;99.90
18948;DHT22;9607;51.600;7.558;2023-01-13T15:28:50;7.00;99.90
18948;DHT22;9607;51.600;7.558;2023-01-13T15:31:20;7.10;99.90
18948;DHT22;9607;51.600;7.558;2023-01-13T15:33:48;7.10;99.90
18948;DHT22;9607;51.600;7.558;2023-01-13T15:36:27;7.10;99.90
18948;DHT22;9607;51.600;7.558;2023-01-13T15:38:55;7.10;99.90
18948;DHT22;9607;51.600;7.558;2023-01-13T15:41:22;7.20;99.90
18948;DHT22;9607;51.600;7.558;2023-01-13T15:44:09;7.20;99.90
18948;DHT22;9607;51.600;7.558;2023-01-13T15:46:54;7.20;99.90
18948;DHT22;9607;51.600;7.558;2023-01-13T15:49:25;7.30;99.90
18948;DHT22;9607;51.600;7.558;2023-01-13T15:51:53;7.30;99.90
18948;DHT22;9607;51.600;7.558;2023-01-13T15:54:20;7.30;99.90
18948;DHT22;9607;51.600;7.558;2023-01-13T15:56:49;7.30;99.90
18948;DHT22;9607;51.600;7.558;2023-01-13T15:59:18;7.30;99.90
18948;DHT22;9607;51.600;7.558;2023-01-13T16:01:46;7.30;99.90
18948;DHT22;9607;51.600;7.558;2023-01-13T16:04:13;7.30;99.90
18948;DHT22;9607;51.600;7.558;2023-01-13T16:06:40;7.30;99.90
18948;DHT22;9607;51.600;7.558;2023-01-13T16:09:11;7.30;99.90
18948;DHT22;9607;51.600;7.558;2023-01-13T16:11:38;7.30;99.90
18948;DHT22;9607;51.600;7.558;2023-01-13T16:14:05;7.30;99.90
18948;DHT22;9607;51.600;7.558;2023-01-13T16:16:31;7.40;99.90
18948;DHT22;9607;51.600;7.558;2023-01-13T16:18:59;7.40;99.90
18948;DHT22;9607;51.600;7.558;2023-01-13T16:21:26;7.40;99.90
18948;DHT22;9607;51.600;7.558;2023-01-13T16:23:53;7.40;99.90
18948;DHT22;9607;51.600;7.558;2023-01-13T16:26:23;7.40;99.90
18948;DHT22;9607;51.600;7.558;2023-01-13T16:28:51;7.30;99.90
18948;DHT22;9607;51.600;7.558;2023-01-13T16:31:23;7.50;99.90
18948;DHT22;9607;51.600;7.558;2023-01-13T16:33:50;7.50;99.90
18948;DHT22;9607;51.600;7.558;2023-01-13T16:36:18;7.50;99.90
18948;DHT22;9607;51.600;7.558;2023-01-13T16:38:45;7.50;99.90
18948;DHT22;9607;51.600;7.558;2023-01-13T16:41:12;7.50;99.90
18948;DHT22;9607;51.600;7.558;2023-01-13T16:43:41;7.60;99.90
18948;DHT22;9607;51.600;7.558;2023-01-13T16:46:17;7.60;99.90